createdAt,value
2023-03-26T00:01:33.722Z,76.41
2023-03-26T00:04:02.989Z,76.47
2023-03-26T00:06:34.923Z,76.79
2023-03-26T00:09:04.482Z,76.98
2023-03-26T00:11:33.516Z,77.21
2023-03-26T00:14:02.688Z,77.24
2023-03-26T00:16:34.481Z,77.54
2023-03-26T00:19:03.964Z,77.90
2023-03-26T00:21:32.888Z,78.31
2023-03-26T00:24:04.257Z,78.72
2023-03-26T00:26:33.507Z,78.97
2023-03-26T00:29:03.719Z,79.27
2023-03-26T00:31:32.829Z,79.05
2023-03-26T00:34:03.543Z,78.99
2023-03-26T00:36:35.680Z,78.81
2023-03-26T00:39:05.541Z,78.94
2023-03-26T00:41:37.313Z,79.06
2023-03-26T00:44:06.527Z,79.25
2023-03-26T00:46:36.342Z,79.57
2023-03-26T00:49:05.382Z,80.00
2023-03-26T00:51:35.033Z,80.35
2023-03-26T00:54:03.888Z,80.22
2023-03-26T00:56:32.931Z,80.27
2023-03-26T00:59:01.877Z,80.56
2023-03-26T01:01:32.351Z,80.99
2023-03-26T01:04:15.555Z,81.19
2023-03-26T01:06:45.232Z,81.14
2023-03-26T01:09:15.959Z,81.07
2023-03-26T01:11:45.440Z,81.13
2023-03-26T01:14:15.547Z,81.19
2023-03-26T01:16:46.002Z,81.30
2023-03-26T01:19:16.554Z,81.56
2023-03-26T01:21:47.323Z,81.84
2023-03-26T01:24:16.171Z,82.16
2023-03-26T01:26:58.917Z,82.61
2023-03-26T01:29:31.685Z,82.89
2023-03-26T01:32:09.372Z,83.13
2023-03-26T01:34:41.752Z,83.27
2023-03-26T01:37:13.490Z,83.59
2023-03-26T01:39:49.061Z,83.52
2023-03-26T01:42:19.066Z,83.71
2023-03-26T01:44:49.029Z,83.70
2023-03-26T01:47:17.916Z,83.75
2023-03-26T01:49:46.642Z,83.68
2023-03-26T01:52:16.416Z,83.43
2023-03-26T01:54:46.693Z,83.40
2023-03-26T01:57:18.378Z,83.40
2023-03-26T01:59:54.707Z,83.28
2023-03-26T02:02:26.233Z,83.33
2023-03-26T02:04:55.908Z,83.29
2023-03-26T02:07:28.601Z,83.28
2023-03-26T02:09:58.694Z,83.10
2023-03-26T02:12:27.612Z,82.95
2023-03-26T02:14:56.632Z,82.87
2023-03-26T02:17:25.635Z,82.92
2023-03-26T02:19:54.634Z,82.73
2023-03-26T02:22:30.006Z,82.72
2023-03-26T02:24:59.319Z,82.72
2023-03-26T02:27:28.331Z,82.78
2023-03-26T02:29:57.080Z,82.62
2023-03-26T02:32:28.653Z,82.44
2023-03-26T02:34:58.199Z,82.47
2023-03-26T02:37:27.078Z,82.26
2023-03-26T02:40:01.346Z,82.35
2023-03-26T02:42:33.103Z,82.44
2023-03-26T02:45:02.161Z,82.55
2023-03-26T02:47:57.456Z,82.56
2023-03-26T02:50:44.762Z,82.56
2023-03-26T02:53:32.036Z,82.76
2023-03-26T02:56:16.663Z,82.71
2023-03-26T02:58:56.988Z,82.90
2023-03-26T03:01:26.006Z,82.83
2023-03-26T03:03:56.756Z,82.83
2023-03-26T03:06:35.778Z,83.11
2023-03-26T03:09:05.273Z,83.35
2023-03-26T03:11:40.760Z,83.51
2023-03-26T03:14:10.228Z,83.74
2023-03-26T03:16:41.124Z,83.78
2023-03-26T03:19:12.728Z,83.92
2023-03-26T03:21:42.109Z,84.01
2023-03-26T03:24:11.554Z,84.06
2023-03-26T03:26:45.625Z,84.19
2023-03-26T03:29:46.465Z,84.16
2023-03-26T03:32:48.061Z,84.10
2023-03-26T03:35:21.268Z,84.19
2023-03-26T03:37:53.153Z,84.11
2023-03-26T03:40:22.224Z,84.04
2023-03-26T03:42:51.452Z,83.93
2023-03-26T03:45:27.865Z,83.83
2023-03-26T03:48:08.715Z,83.99
2023-03-26T03:50:42.009Z,84.09
2023-03-26T03:53:40.617Z,83.98
2023-03-26T03:56:11.043Z,84.03
2023-03-26T03:58:59.590Z,83.99
2023-03-26T04:01:35.194Z,84.02
2023-03-26T04:04:09.140Z,84.15
2023-03-26T04:07:01.150Z,84.07
2023-03-26T04:09:37.174Z,84.29
2023-03-26T04:12:12.372Z,84.39
2023-03-26T04:14:49.310Z,84.34
2023-03-26T04:17:23.917Z,84.33
2023-03-26T04:19:55.739Z,84.55
2023-03-26T04:22:36.475Z,84.68
2023-03-26T04:25:08.141Z,84.55
2023-03-26T04:27:47.915Z,84.67
2023-03-26T04:30:38.303Z,84.71
2023-03-26T04:33:17.488Z,84.95
2023-03-26T04:35:48.316Z,84.92
2023-03-26T04:38:18.339Z,84.94
2023-03-26T04:40:49.468Z,84.90
2023-03-26T04:43:35.557Z,84.88
2023-03-26T04:46:34.973Z,84.89
2023-03-26T04:49:12.286Z,85.02
2023-03-26T04:51:42.425Z,84.96
2023-03-26T04:54:25.432Z,85.18
2023-03-26T04:57:00.161Z,85.14
2023-03-26T04:59:35.393Z,84.94
2023-03-26T05:02:08.309Z,84.86
2023-03-26T05:04:46.059Z,85.04
2023-03-26T05:07:16.961Z,84.98
2023-03-26T05:09:49.371Z,85.04
2023-03-26T05:12:23.624Z,84.86
2023-03-26T05:14:59.994Z,85.01
2023-03-26T05:17:48.780Z,85.15
2023-03-26T05:20:40.642Z,85.09
2023-03-26T05:23:10.850Z,85.34
2023-03-26T05:25:49.175Z,85.46
2023-03-26T05:28:21.009Z,85.57
2023-03-26T05:30:56.790Z,85.66
2023-03-26T05:33:27.225Z,85.67
2023-03-26T05:36:03.352Z,85.49
2023-03-26T05:38:33.573Z,85.74
2023-03-26T05:41:03.280Z,85.76
2023-03-26T05:43:32.387Z,85.92
2023-03-26T05:46:09.971Z,86.05
2023-03-26T05:48:39.543Z,86.10
2023-03-26T05:51:09.274Z,86.12
2023-03-26T05:53:38.971Z,86.24
2023-03-26T05:56:26.143Z,86.26
2023-03-26T05:59:01.117Z,86.35
2023-03-26T06:01:54.762Z,86.47
2023-03-26T06:04:40.839Z,86.40
2023-03-26T06:07:36.024Z,86.38
2023-03-26T06:10:25.075Z,86.27
2023-03-26T06:12:54.435Z,86.02
2023-03-26T06:15:23.383Z,85.95
2023-03-26T06:18:01.476Z,85.89
2023-03-26T06:20:39.041Z,85.99
2023-03-26T06:23:34.240Z,85.93
2023-03-26T06:26:14.429Z,86.01
2023-03-26T06:28:57.213Z,86.15
2023-03-26T06:31:44.844Z,86.07
2023-03-26T06:34:20.670Z,86.03
2023-03-26T06:36:52.656Z,86.02
2023-03-26T06:39:23.087Z,85.95
2023-03-26T06:42:10.434Z,85.79
2023-03-26T06:44:58.893Z,85.69
2023-03-26T06:47:36.335Z,85.76
2023-03-26T06:50:23.547Z,85.67
2023-03-26T06:53:15.814Z,85.63
2023-03-26T06:56:12.955Z,85.54
2023-03-26T06:59:00.746Z,85.62
2023-03-26T07:01:48.602Z,85.42
2023-03-26T07:04:36.598Z,85.42
2023-03-26T07:07:25.698Z,85.27
2023-03-26T07:10:13.235Z,85.26
2023-03-26T07:13:00.784Z,84.97
2023-03-26T07:15:29.543Z,84.93
2023-03-26T07:18:16.865Z,85.03
2023-03-26T07:20:47.632Z,84.77
2023-03-26T07:23:20.099Z,84.73
2023-03-26T07:25:59.495Z,84.78
2023-03-26T07:28:36.178Z,84.79
2023-03-26T07:31:17.138Z,85.06
2023-03-26T07:33:53.746Z,85.23
2023-03-26T07:36:32.515Z,85.41
2023-03-26T07:39:32.148Z,85.29
2023-03-26T07:42:25.926Z,85.40
2023-03-26T07:45:17.648Z,85.54
2023-03-26T07:48:06.930Z,85.76
2023-03-26T07:51:03.402Z,85.87
2023-03-26T07:53:55.593Z,86.18
2023-03-26T07:56:41.420Z,86.38
2023-03-26T07:59:38.156Z,86.64
2023-03-26T08:02:50.502Z,86.45
2023-03-26T08:05:39.238Z,86.68
2023-03-26T08:08:11.879Z,87.01
2023-03-26T08:10:50.402Z,87.36
2023-03-26T08:13:22.575Z,87.67
2023-03-26T08:15:57.684Z,87.61
2023-03-26T08:18:30.750Z,87.46
2023-03-26T08:21:00.932Z,87.35
2023-03-26T08:23:31.001Z,87.80
2023-03-26T08:26:02.411Z,87.81
2023-03-26T08:28:38.520Z,88.02
2023-03-26T08:31:08.467Z,87.99
2023-03-26T08:33:38.369Z,87.95
2023-03-26T08:36:07.864Z,87.95
2023-03-26T08:38:36.792Z,87.87
2023-03-26T08:41:23.475Z,88.00
2023-03-26T08:44:06.979Z,88.39
2023-03-26T08:46:49.330Z,88.26
2023-03-26T08:49:31.830Z,88.39
2023-03-26T08:52:21.657Z,88.32
2023-03-26T08:55:08.180Z,88.11
2023-03-26T08:57:41.822Z,88.01
2023-03-26T09:00:16.616Z,88.16
2023-03-26T09:03:02.326Z,88.22
2023-03-26T09:05:59.651Z,88.44
2023-03-26T09:08:36.707Z,88.85
2023-03-26T09:11:10.321Z,89.07
2023-03-26T09:13:52.757Z,88.88
2023-03-26T09:16:28.985Z,88.97
2023-03-26T09:19:06.126Z,88.76
2023-03-26T09:21:48.144Z,88.82
2023-03-26T09:24:27.654Z,88.76
2023-03-26T09:27:01.653Z,88.82
2023-03-26T09:29:38.884Z,88.53
2023-03-26T09:32:21.438Z,88.48
2023-03-26T09:35:01.511Z,88.38
2023-03-26T09:37:33.670Z,88.43
2023-03-26T09:40:06.225Z,88.61
2023-03-26T09:42:38.551Z,88.44
2023-03-26T09:45:15.026Z,88.39
2023-03-26T09:47:53.859Z,88.32
2023-03-26T09:50:26.526Z,88.32
2023-03-26T09:52:58.535Z,88.19
2023-03-26T09:55:32.527Z,88.50
2023-03-26T09:58:08.408Z,88.58
2023-03-26T10:00:39.302Z,88.38
2023-03-26T10:03:20.070Z,88.32
2023-03-26T10:06:01.071Z,88.35
2023-03-26T10:08:33.845Z,87.94
2023-03-26T10:11:04.441Z,88.12
2023-03-26T10:13:34.152Z,88.11
2023-03-26T10:16:16.768Z,88.15
2023-03-26T10:18:49.880Z,87.77
2023-03-26T10:21:22.106Z,87.98
2023-03-26T10:23:57.788Z,88.11
2023-03-26T10:26:30.635Z,88.02
2023-03-26T10:29:09.292Z,88.10
2023-03-26T10:31:40.523Z,88.13
2023-03-26T10:34:28.525Z,88.14
2023-03-26T10:37:01.079Z,88.11
2023-03-26T10:39:49.420Z,88.18
2023-03-26T10:42:23.111Z,88.26
2023-03-26T10:44:56.379Z,88.16
2023-03-26T10:47:28.849Z,88.28
2023-03-26T10:50:11.357Z,88.39
2023-03-26T10:52:40.546Z,88.38
2023-03-26T10:55:12.611Z,88.07
2023-03-26T10:57:42.400Z,87.26
2023-03-26T11:00:25.436Z,87.18
2023-03-26T11:03:01.501Z,86.69
2023-03-26T11:05:35.621Z,87.13
2023-03-26T11:08:05.383Z,86.83
2023-03-26T11:10:37.170Z,86.39
2023-03-26T11:13:07.718Z,85.32
2023-03-26T11:15:37.014Z,85.06
2023-03-26T11:18:07.842Z,84.32
2023-03-26T11:20:38.766Z,83.52
2023-03-26T11:23:12.924Z,83.17
2023-03-26T11:25:44.835Z,83.44
2023-03-26T11:28:19.295Z,83.67
2023-03-26T11:30:50.423Z,84.21
2023-03-26T11:41:16.261Z,84.66
2023-03-26T11:43:56.628Z,84.94
2023-03-26T11:46:27.235Z,85.02
2023-03-26T11:48:58.291Z,84.98
2023-03-26T11:51:29.161Z,85.21
2023-03-26T11:53:58.764Z,85.01
2023-03-26T11:56:28.619Z,84.48
2023-03-26T11:58:58.048Z,84.20
2023-03-26T12:01:30.565Z,83.88
2023-03-26T12:04:04.335Z,83.34
2023-03-26T12:06:34.746Z,83.12
2023-03-26T12:09:03.979Z,81.97
2023-03-26T12:11:35.538Z,80.18
2023-03-26T12:14:05.628Z,77.82
2023-03-26T12:16:34.607Z,77.54
2023-03-26T12:19:05.380Z,76.19
2023-03-26T12:21:34.139Z,73.49
2023-03-26T12:24:04.762Z,71.50
2023-03-26T12:26:39.760Z,71.31
2023-03-26T12:29:10.903Z,71.12
2023-03-26T12:31:44.722Z,69.51
2023-03-26T12:34:17.735Z,66.97
2023-03-26T12:36:50.755Z,66.26
2023-03-26T12:40:08.758Z,65.11
2023-03-26T12:44:47.435Z,62.70
2023-03-26T12:45:23.412Z,64.43
2023-03-26T12:48:00.848Z,64.84
2023-03-26T12:50:37.849Z,65.22
2023-03-26T12:53:14.899Z,64.96
2023-03-26T12:55:46.352Z,65.42
2023-03-26T13:01:06.689Z,67.59
2023-03-26T13:03:41.885Z,69.21
2023-03-26T13:06:21.650Z,68.17
2023-03-26T13:08:54.872Z,66.77
2023-03-26T13:11:25.512Z,66.35
2023-03-26T13:14:06.440Z,65.82
2023-03-26T13:16:38.718Z,64.45
2023-03-26T13:19:11.788Z,62.87
2023-03-26T13:21:45.190Z,59.99
2023-03-26T13:24:17.270Z,56.35
2023-03-26T13:26:51.292Z,56.54
2023-03-26T13:29:21.921Z,58.54
2023-03-26T13:31:54.140Z,59.83
2023-03-26T13:34:30.306Z,60.36
2023-03-26T13:37:01.600Z,59.03
2023-03-26T13:39:33.134Z,56.67
2023-03-26T13:42:07.088Z,57.20
2023-03-26T13:44:38.276Z,58.28
2023-03-26T13:47:08.646Z,58.25
2023-03-26T13:49:41.045Z,59.22
2023-03-26T13:52:11.362Z,60.68
2023-03-26T13:54:44.130Z,62.66
2023-03-26T13:57:15.410Z,64.79
2023-03-26T13:59:45.825Z,65.85
2023-03-26T14:02:17.875Z,64.42
2023-03-26T14:04:47.338Z,62.45
2023-03-26T14:07:21.152Z,59.90
2023-03-26T14:09:51.942Z,58.18
2023-03-26T14:12:23.099Z,56.31
2023-03-26T14:14:52.757Z,56.50
2023-03-26T14:17:22.510Z,56.45
2023-03-26T14:20:02.068Z,57.33
2023-03-26T14:22:33.462Z,58.38
2023-03-26T14:25:05.401Z,59.44
2023-03-26T14:27:38.339Z,59.51
2023-03-26T14:30:14.793Z,60.10
2023-03-26T14:33:16.369Z,61.31
2023-03-26T14:36:01.070Z,61.13
2023-03-26T14:38:42.416Z,61.88
2023-03-26T14:41:17.894Z,62.60
2023-03-26T14:43:57.050Z,62.99
2023-03-26T14:46:41.569Z,62.30
2023-03-26T14:49:26.636Z,63.11
2023-03-26T14:52:10.775Z,62.74
2023-03-26T14:54:41.569Z,62.89
2023-03-26T14:57:35.899Z,62.62
2023-03-26T15:00:39.910Z,62.89
2023-03-26T15:03:22.699Z,63.00
2023-03-26T15:06:10.810Z,63.21
2023-03-26T15:08:53.320Z,63.56
2023-03-26T15:11:25.662Z,63.66
2023-03-26T15:14:08.084Z,64.00
2023-03-26T15:16:50.006Z,63.49
2023-03-26T15:19:32.490Z,63.76
2023-03-26T15:22:10.156Z,63.99
2023-03-26T15:24:52.458Z,64.26
2023-03-26T15:27:44.019Z,63.32
2023-03-26T15:30:28.395Z,63.05
2023-03-26T15:33:10.933Z,63.29
2023-03-26T15:35:57.488Z,63.99
2023-03-26T15:38:43.272Z,63.94
2023-03-26T15:41:19.437Z,64.26
2023-03-26T15:44:24.543Z,66.72
2023-03-26T15:46:59.069Z,68.59
2023-03-26T15:49:32.688Z,70.86
2023-03-26T15:52:05.562Z,73.13
2023-03-26T15:54:37.299Z,74.65
2023-03-26T16:03:09.544Z,78.79
2023-03-26T16:05:41.931Z,79.61
2023-03-26T16:08:15.521Z,80.12
2023-03-26T16:10:44.926Z,80.69
2023-03-26T16:13:33.034Z,81.05
2023-03-26T16:16:18.094Z,81.33
2023-03-26T16:18:47.164Z,81.66
2023-03-26T16:21:42.223Z,81.80
2023-03-26T16:24:19.281Z,81.93
2023-03-26T16:26:54.042Z,82.40
2023-03-26T16:29:26.468Z,82.37
2023-03-26T16:32:14.956Z,82.77
2023-03-26T16:34:47.496Z,82.95
2023-03-26T16:37:29.844Z,83.36
2023-03-26T16:40:02.463Z,83.40
2023-03-26T16:42:37.476Z,83.31
2023-03-26T16:45:14.227Z,83.30
2023-03-26T16:47:45.832Z,83.37
2023-03-26T16:50:18.713Z,83.49
2023-03-26T16:52:51.888Z,83.56
2023-03-26T16:55:23.454Z,83.80
2023-03-26T16:57:56.170Z,83.71
2023-03-26T17:00:38.644Z,83.64
2023-03-26T17:03:12.927Z,84.02
2023-03-26T17:05:44.896Z,83.94
2023-03-26T17:08:16.339Z,84.19
2023-03-26T17:10:47.630Z,84.38
2023-03-26T17:13:20.354Z,84.59
2023-03-26T17:15:52.038Z,84.60
2023-03-26T17:18:26.398Z,84.80
2023-03-26T17:21:00.168Z,85.03
2023-03-26T17:23:32.396Z,85.21
2023-03-26T17:26:08.470Z,85.45
2023-03-26T17:28:48.303Z,85.62
2023-03-26T17:31:21.183Z,85.64
2023-03-26T17:33:50.727Z,85.71
2023-03-26T17:36:29.121Z,85.79
2023-03-26T17:39:11.496Z,86.17
2023-03-26T17:41:56.629Z,85.89
2023-03-26T17:44:38.330Z,85.86
2023-03-26T17:47:08.511Z,85.86
2023-03-26T17:49:37.933Z,85.81
2023-03-26T17:52:14.407Z,85.90
2023-03-26T17:54:44.192Z,86.27
2023-03-26T17:57:14.200Z,86.07
2023-03-26T17:59:43.134Z,85.73
2023-03-26T18:02:17.577Z,85.55
2023-03-26T18:04:51.052Z,85.59
2023-03-26T18:07:36.209Z,85.81
2023-03-26T18:10:12.820Z,85.97
2023-03-26T18:12:45.698Z,86.20
2023-03-26T18:15:34.183Z,86.44
2023-03-26T18:18:09.512Z,86.68
2023-03-26T18:20:38.346Z,86.94
2023-03-26T18:23:13.703Z,86.91
2023-03-26T18:25:43.142Z,86.94
2023-03-26T18:28:13.767Z,87.08
2023-03-26T18:30:47.249Z,87.35
2023-03-26T18:33:16.823Z,87.40
2023-03-26T18:35:46.298Z,87.53
2023-03-26T18:38:18.613Z,87.66
2023-03-26T18:41:05.826Z,87.61
2023-03-26T18:43:35.755Z,87.49
2023-03-26T18:46:13.954Z,87.59
2023-03-26T18:48:42.889Z,87.75
2023-03-26T18:51:11.827Z,87.79
2023-03-26T18:53:42.101Z,87.90
2023-03-26T18:56:21.399Z,87.81
2023-03-26T18:58:52.428Z,87.73
2023-03-26T19:01:25.776Z,87.75
2023-03-26T19:03:55.429Z,87.79
2023-03-26T19:06:24.644Z,87.88
2023-03-26T19:08:54.511Z,87.99
2023-03-26T19:11:24.087Z,88.25
2023-03-26T19:13:59.917Z,88.38
2023-03-26T19:16:34.728Z,88.32
2023-03-26T19:19:04.756Z,88.32
2023-03-26T19:21:34.119Z,88.43
2023-03-26T19:24:03.910Z,88.57
2023-03-26T19:26:33.402Z,88.80
2023-03-26T19:29:02.636Z,88.98
2023-03-26T19:31:36.106Z,88.99
2023-03-26T19:34:06.727Z,89.18
2023-03-26T19:36:37.117Z,89.25
2023-03-26T19:39:11.591Z,89.51
2023-03-26T19:41:40.959Z,89.41
2023-03-26T19:44:17.440Z,89.52
2023-03-26T19:46:53.586Z,89.70
2023-03-26T19:49:31.249Z,89.74
2023-03-26T19:52:10.880Z,89.85
2023-03-26T19:54:59.890Z,90.06
2023-03-26T19:57:29.976Z,90.05
2023-03-26T19:59:59.513Z,90.19
2023-03-26T20:02:28.543Z,90.07
2023-03-26T20:04:57.602Z,90.01
2023-03-26T20:07:35.974Z,90.00
2023-03-26T20:10:06.504Z,89.97
2023-03-26T20:12:35.357Z,90.01
2023-03-26T20:15:07.041Z,89.78
2023-03-26T20:17:50.214Z,89.50
2023-03-26T20:20:19.661Z,89.56
2023-03-26T20:22:49.506Z,89.45
2023-03-26T20:25:20.104Z,89.41
2023-03-26T20:27:49.082Z,89.36
2023-03-26T20:30:27.511Z,89.37
2023-03-26T20:33:12.184Z,89.43
2023-03-26T20:35:43.141Z,89.41
2023-03-26T20:38:12.026Z,89.48
2023-03-26T20:40:41.594Z,89.59
2023-03-26T20:43:14.251Z,89.59
2023-03-26T20:45:43.248Z,89.56
2023-03-26T20:48:12.194Z,89.30
2023-03-26T20:50:50.244Z,89.29
2023-03-26T20:53:20.357Z,89.36
2023-03-26T20:55:51.463Z,89.30
2023-03-26T20:58:31.667Z,89.50
2023-03-26T21:01:02.463Z,89.55
2023-03-26T21:03:32.146Z,89.42
2023-03-26T21:06:04.918Z,89.35
2023-03-26T21:08:37.353Z,89.01
2023-03-26T21:11:11.314Z,88.72
2023-03-26T21:13:40.652Z,88.72
2023-03-26T21:16:10.462Z,88.84
2023-03-26T21:18:39.928Z,88.84
2023-03-26T21:21:21.073Z,88.73
2023-03-26T21:23:56.045Z,88.84
2023-03-26T21:26:26.001Z,88.83
2023-03-26T21:28:54.933Z,89.05
2023-03-26T21:31:24.260Z,89.03
2023-03-26T21:33:55.089Z,89.01
2023-03-26T21:36:24.343Z,89.22
2023-03-26T21:38:54.581Z,89.08
2023-03-26T21:41:27.190Z,89.06
2023-03-26T21:43:55.990Z,88.98
2023-03-26T21:46:25.534Z,89.06
2023-03-26T21:48:54.971Z,89.21
2023-03-26T21:51:24.697Z,89.24
2023-03-26T21:53:54.605Z,89.22
2023-03-26T21:56:27.609Z,89.38
2023-03-26T21:58:58.025Z,89.28
2023-03-26T22:01:29.749Z,89.15
2023-03-26T22:04:01.958Z,89.27
2023-03-26T22:06:32.236Z,89.30
2023-03-26T22:09:02.016Z,89.28
2023-03-26T22:11:30.881Z,89.18
2023-03-26T22:13:59.633Z,89.29
2023-03-26T22:16:28.532Z,89.23
2023-03-26T22:18:57.623Z,89.29
2023-03-26T22:21:26.795Z,89.40
2023-03-26T22:23:55.749Z,89.32
2023-03-26T22:26:24.764Z,89.22
2023-03-26T22:28:53.577Z,88.85
2023-03-26T22:31:22.718Z,89.00
2023-03-26T22:33:51.880Z,88.64
2023-03-26T22:36:22.745Z,88.62
2023-03-26T22:38:54.472Z,88.41
2023-03-26T22:41:23.595Z,88.52
2023-03-26T22:43:54.427Z,88.66
2023-03-26T22:46:23.532Z,88.78
2023-03-26T22:48:52.844Z,88.61
2023-03-26T22:51:21.752Z,88.27
2023-03-26T22:53:50.734Z,87.96
2023-03-26T22:56:19.553Z,87.70
2023-03-26T22:58:48.658Z,87.88
2023-03-26T23:01:18.550Z,87.77
2023-03-26T23:03:47.588Z,87.74
2023-03-26T23:06:17.157Z,87.49
2023-03-26T23:08:46.329Z,87.54
2023-03-26T23:11:16.099Z,87.60
2023-03-26T23:13:45.261Z,87.62
2023-03-26T23:16:14.731Z,87.68
2023-03-26T23:18:43.725Z,87.85
2023-03-26T23:21:15.299Z,87.92
2023-03-26T23:23:44.147Z,88.16
2023-03-26T23:26:13.491Z,88.55
2023-03-26T23:28:43.213Z,88.57
2023-03-26T23:31:13.478Z,88.88
2023-03-26T23:33:45.694Z,89.08
2023-03-26T23:36:17.396Z,89.32
2023-03-26T23:38:47.590Z,89.49
2023-03-26T23:41:16.536Z,89.75
2023-03-26T23:43:54.635Z,90.09
2023-03-26T23:46:24.894Z,89.90
2023-03-26T23:48:54.801Z,89.57
2023-03-26T23:51:23.982Z,89.35
2023-03-26T23:53:53.440Z,89.24
2023-03-26T23:56:22.788Z,89.40
2023-03-26T23:58:51.624Z,89.52
